Granville, New York
Current Conditions -  °F | °C
As of 6:35 PM on Saturday 25 Oct 2014 (Local Time) from KRUT Reporting Station
Overcast Overcast  
Wind Chill: 54°   Ceiling: 6500
Heat Index: 54°   Visibility: 10mi
Dew Point: 45°   Wind: 6mph
Humidity: 72%   Direction: 130°SE
Pressure: 29.55"   Gusts: NA
Location:  43.41°N, 73.26°W
Report Text: KRUT 252235Z 13005KT 10SM OVC065 12/07 A2955 RMK AO1
Loading
Personal Weather Stations






























Interactive Weather Map
Tropical Storm Tracking
New forecast layout! Learn more

10-Day Weather Forecast

Advertisements
Track Severe Weather on mobile